ロングイェールビーン の空港の天気 - METARとTAF

スヴァールバル空港 ( ENSB / LYR ) - スヴァールバル諸島・ヤンマイエン島 ロングイェールビーン
飛行場実況気象(Metar)
観測時間11/27 09:50 CET (11/27 08:50 UTC)
風向・風速不定 2m/s
視程10km以上
天気現象
全天の8割程度の雲 雲底高度 790m
気温-5℃
湿度79%
気圧1017hPa
METARENSB 270850Z VRB03KT 9999 BKN026 M05/M08 Q1017 RMK WIND 1400FT 12008KT
過去の天気等 Google飛行場航空写真 Wunderground天気予報

過去48時間のMETAR

飛行場予報(TAF)
発表時間: -
TAF ENSB 2706/2806 12008KT 9999 SCT025